Terminal Aerodrome Forecast
Issued by NWS Wilmington, OH

Current Version | Previous Version | Graphics & Text | Print | Product List | Glossary On
Versions: 1 2 3 4 5 6 7 8 9 10 11 12 13 14 15
000
FTUS41 KILN 241744
TAFCMH
TAF
KCMH 241744Z 2418/2518 08014KT P6SM SCT050 BKN250
     FM242300 09011KT P6SM BKN100
     FM250700 10007KT P6SM BKN050
     FM251500 12007KT P6SM SCT050=

USA.gov is the U.S. government's official web portal to all federal, state and local government web resources and services.